createdAt,value
2023-05-21T00:03:46.782Z,5.03
2023-05-21T00:08:48.527Z,4.67
2023-05-21T00:13:50.339Z,6.10
2023-05-21T00:18:54.819Z,4.47
2023-05-21T00:23:56.695Z,4.00
2023-05-21T00:28:59.590Z,3.90
2023-05-21T00:34:01.557Z,3.63
2023-05-21T00:39:04.313Z,4.00
2023-05-21T00:44:09.891Z,4.13
2023-05-21T00:49:14.664Z,4.93
2023-05-21T00:54:16.365Z,6.40
2023-05-21T00:59:18.036Z,4.63
2023-05-21T01:04:20.545Z,4.37
2023-05-21T01:09:22.369Z,4.30
2023-05-21T01:14:25.037Z,4.73
2023-05-21T01:19:26.775Z,4.63
2023-05-21T01:24:28.784Z,6.00
2023-05-21T01:29:31.250Z,3.93
2023-05-21T01:34:37.927Z,4.47
2023-05-21T01:39:44.358Z,4.47
2023-05-21T01:44:47.030Z,4.13
2023-05-21T01:49:48.742Z,4.73
2023-05-21T01:54:51.451Z,3.93
2023-05-21T01:59:53.465Z,4.03
2023-05-21T02:04:55.092Z,4.70
2023-05-21T02:09:56.675Z,4.07
2023-05-21T02:14:58.592Z,6.63
2023-05-21T02:20:21.254Z,5.23
2023-05-21T02:25:22.980Z,4.37
2023-05-21T02:30:26.385Z,5.30
2023-05-21T02:35:28.195Z,5.23
2023-05-21T02:40:30.377Z,3.77
2023-05-21T02:51:23.677Z,5.30
2023-05-21T02:56:26.167Z,3.80
2023-05-21T03:01:28.290Z,5.80
2023-05-21T03:06:30.941Z,3.90
2023-05-21T03:11:32.514Z,4.87
2023-05-21T03:16:35.605Z,3.90
2023-05-21T03:21:37.634Z,5.67
2023-05-21T03:26:39.786Z,4.97
2023-05-21T03:31:41.473Z,5.37
2023-05-21T03:36:48.550Z,5.37
2023-05-21T03:41:52.693Z,5.00
2023-05-21T03:47:01.579Z,6.77
2023-05-21T03:52:07.787Z,4.33
2023-05-21T03:57:09.755Z,4.63
2023-05-21T04:02:11.633Z,5.13
2023-05-21T04:07:15.382Z,4.83
2023-05-21T04:12:19.047Z,5.50
2023-05-21T04:17:21.133Z,4.67
2023-05-21T04:22:23.433Z,5.00
2023-05-21T04:27:25.288Z,5.63
2023-05-21T04:32:28.679Z,5.43
2023-05-21T04:37:31.552Z,5.17
2023-05-21T04:42:34.004Z,6.20
2023-05-21T04:47:38.782Z,4.50
2023-05-21T04:52:40.775Z,6.07
2023-05-21T04:57:42.371Z,5.33
2023-05-21T05:02:44.174Z,5.60
2023-05-21T05:07:46.065Z,5.20
2023-05-21T05:12:48.633Z,6.77
2023-05-21T05:17:50.662Z,6.07
2023-05-21T05:22:52.358Z,5.07
2023-05-21T05:27:54.186Z,4.37
2023-05-21T05:32:58.409Z,5.27
2023-05-21T05:38:00.614Z,6.13
2023-05-21T05:43:03.282Z,5.10
2023-05-21T05:48:05.462Z,6.57
2023-05-21T05:53:07.356Z,5.37
2023-05-21T05:58:09.413Z,5.13
2023-05-21T06:03:23.889Z,5.50
2023-05-21T06:08:28.722Z,5.07
2023-05-21T06:13:30.306Z,5.77
2023-05-21T06:18:31.890Z,4.43
2023-05-21T06:23:36.735Z,5.23
2023-05-21T06:28:38.717Z,3.87
2023-05-21T06:33:41.309Z,5.47
2023-05-21T06:38:43.482Z,4.33
2023-05-21T06:43:46.354Z,6.23
2023-05-21T06:49:07.166Z,4.23
2023-05-21T06:54:09.579Z,4.97
2023-05-21T06:59:14.224Z,4.30
2023-05-21T07:04:17.425Z,4.87
2023-05-21T07:09:19.477Z,4.97
2023-05-21T07:14:25.630Z,3.87
2023-05-21T07:19:27.802Z,3.43
2023-05-21T07:24:29.729Z,3.97
2023-05-21T07:29:31.382Z,4.00
2023-05-21T07:34:33.229Z,5.70
2023-05-21T07:39:34.925Z,5.53
2023-05-21T07:44:36.679Z,3.60
2023-05-21T07:49:38.387Z,4.03
2023-05-21T07:54:40.030Z,4.40
2023-05-21T07:59:43.522Z,4.20
2023-05-21T08:04:46.021Z,3.85
2023-05-21T08:09:49.777Z,5.38
2023-05-21T08:14:52.600Z,4.47
2023-05-21T08:19:54.669Z,4.93
2023-05-21T08:24:56.696Z,4.13
2023-05-21T08:29:58.603Z,5.65
2023-05-21T08:35:01.393Z,6.05
2023-05-21T08:40:21.788Z,5.63
2023-05-21T08:45:24.306Z,7.07
2023-05-21T08:50:29.654Z,5.20
2023-05-21T08:55:36.805Z,6.10
2023-05-21T09:00:38.898Z,6.05
2023-05-21T09:05:43.586Z,4.05
2023-05-21T09:10:50.829Z,5.13
2023-05-21T09:15:53.938Z,4.50
2023-05-21T09:20:57.528Z,5.88
2023-05-21T09:26:00.923Z,5.95
2023-05-21T09:31:06.895Z,4.97
2023-05-21T09:36:09.000Z,4.82
2023-05-21T09:41:11.208Z,5.63
2023-05-21T09:46:13.812Z,5.53
2023-05-21T09:51:16.983Z,3.75
2023-05-21T09:56:27.214Z,4.65
2023-05-21T10:01:32.051Z,4.68
2023-05-21T10:06:43.244Z,4.70
2023-05-21T10:11:45.710Z,4.10
2023-05-21T10:16:48.442Z,4.18
2023-05-21T10:21:52.494Z,5.22
2023-05-21T10:26:54.766Z,4.07
2023-05-21T10:31:57.519Z,5.55
2023-05-21T10:37:01.724Z,6.25
2023-05-21T10:42:21.643Z,4.15
2023-05-21T10:47:26.217Z,4.40
2023-05-21T10:52:32.768Z,5.47
2023-05-21T10:57:45.944Z,6.35
2023-05-21T11:02:49.166Z,6.15
2023-05-21T11:07:59.368Z,4.95
2023-05-21T11:13:20.659Z,5.50
2023-05-21T11:18:22.320Z,4.18
2023-05-21T11:23:23.937Z,5.57
2023-05-21T11:28:33.851Z,4.50
2023-05-21T11:33:35.407Z,6.90
2023-05-21T11:38:37.543Z,6.15
2023-05-21T11:43:44.649Z,6.95
2023-05-21T11:48:46.678Z,5.07
2023-05-21T11:53:48.879Z,5.50
2023-05-21T11:58:50.734Z,5.13
2023-05-21T12:03:52.530Z,4.15
2023-05-21T12:08:58.152Z,4.65
2023-05-21T12:13:59.886Z,4.47
2023-05-21T12:19:03.377Z,5.00
2023-05-21T12:24:05.423Z,4.88
2023-05-21T12:29:07.723Z,4.78
2023-05-21T12:34:10.915Z,5.97
2023-05-21T12:39:12.607Z,5.53
2023-05-21T12:44:14.333Z,4.60
2023-05-21T12:49:33.117Z,4.53
2023-05-21T12:54:46.295Z,5.65
2023-05-21T12:59:49.282Z,4.78
2023-05-21T13:05:01.811Z,4.20
2023-05-21T13:10:04.745Z,4.35
2023-05-21T13:15:08.072Z,4.53
2023-05-21T13:20:21.518Z,4.65
2023-05-21T13:25:27.406Z,4.25
2023-05-21T13:30:29.136Z,4.38
2023-05-21T13:35:31.046Z,5.00
2023-05-21T13:40:32.823Z,5.13
2023-05-21T13:45:34.446Z,5.20
2023-05-21T13:50:36.774Z,5.50
2023-05-21T13:55:38.558Z,4.78
2023-05-21T14:00:41.290Z,4.03
2023-05-21T14:05:43.184Z,4.63
2023-05-21T14:10:44.800Z,4.53
2023-05-21T14:15:46.408Z,5.10
2023-05-21T14:20:48.056Z,4.40
2023-05-21T14:25:49.715Z,5.88
2023-05-21T14:30:51.466Z,5.05
2023-05-21T14:35:53.123Z,4.28
2023-05-21T14:40:54.852Z,4.65
2023-05-21T14:45:57.058Z,5.97
2023-05-21T14:50:58.881Z,5.00
2023-05-21T14:56:00.569Z,5.55
2023-05-21T15:01:04.057Z,4.85
2023-05-21T15:06:05.740Z,5.57
2023-05-21T15:11:10.452Z,5.38
2023-05-21T15:16:12.184Z,5.43
2023-05-21T15:21:13.876Z,4.32
2023-05-21T15:26:15.583Z,4.82
2023-05-21T15:31:17.961Z,4.65
2023-05-21T15:36:19.638Z,4.75
2023-05-21T15:41:22.012Z,4.38
2023-05-21T15:46:23.693Z,5.10
2023-05-21T15:51:25.916Z,4.40
2023-05-21T15:56:27.661Z,4.75
2023-05-21T16:01:29.405Z,5.13
2023-05-21T16:06:31.595Z,4.80
2023-05-21T16:11:33.428Z,5.00
2023-05-21T16:16:35.593Z,4.18
2023-05-21T16:21:38.066Z,4.13
2023-05-21T16:26:39.674Z,3.10
2023-05-21T16:31:42.116Z,3.33
2023-05-21T16:36:43.759Z,4.78
2023-05-21T16:41:45.346Z,4.13
2023-05-21T16:46:46.961Z,2.90
2023-05-21T16:51:48.616Z,4.70
2023-05-21T16:56:50.324Z,4.28
2023-05-21T17:01:52.092Z,4.75
2023-05-21T17:06:53.966Z,4.03
2023-05-21T17:11:55.979Z,4.10
2023-05-21T17:16:57.647Z,3.75
2023-05-21T17:21:59.267Z,3.47
2023-05-21T17:27:00.875Z,3.25
2023-05-21T17:32:02.693Z,3.83
2023-05-21T17:37:04.501Z,4.30
2023-05-21T17:42:06.147Z,3.33
2023-05-21T17:47:08.671Z,3.20
2023-05-21T17:52:10.995Z,3.65
2023-05-21T17:57:13.740Z,3.70
2023-05-21T18:02:15.361Z,3.80
2023-05-21T18:07:17.405Z,3.83
2023-05-21T18:12:19.100Z,6.70
2023-05-21T18:17:20.912Z,3.63
2023-05-21T18:22:22.945Z,4.00
2023-05-21T18:27:24.736Z,5.55
2023-05-21T18:32:26.436Z,5.43
2023-05-21T18:37:29.299Z,5.22
2023-05-21T18:42:30.996Z,5.47
2023-05-21T18:47:33.568Z,5.28
2023-05-21T18:52:35.928Z,5.18
2023-05-21T18:57:38.239Z,5.35
2023-05-21T19:02:40.586Z,5.15
2023-05-21T19:07:42.408Z,5.43
2023-05-21T19:12:44.247Z,5.43
2023-05-21T19:17:45.999Z,4.68
2023-05-21T19:22:47.934Z,6.32
2023-05-21T19:27:49.593Z,5.45
2023-05-21T19:32:51.461Z,5.32
2023-05-21T19:37:54.818Z,6.27
2023-05-21T19:42:56.828Z,5.13
2023-05-21T19:47:59.879Z,5.93
2023-05-21T19:53:01.644Z,6.87
2023-05-21T19:58:03.702Z,6.53
2023-05-21T20:03:06.840Z,7.03
2023-05-21T20:08:08.606Z,6.57
2023-05-21T20:13:10.599Z,7.03
2023-05-21T20:18:13.596Z,5.83
2023-05-21T20:23:15.371Z,6.83
2023-05-21T20:28:17.721Z,6.37
2023-05-21T20:33:20.171Z,6.90
2023-05-21T20:38:22.118Z,5.97
2023-05-21T20:43:24.638Z,7.80
2023-05-21T20:48:30.518Z,6.53
2023-05-21T20:53:32.233Z,7.50
2023-05-21T20:58:33.862Z,7.47
2023-05-21T21:03:45.598Z,8.70
2023-05-21T21:08:50.035Z,7.33
2023-05-21T21:13:52.013Z,7.43
2023-05-21T21:18:53.765Z,7.67
2023-05-21T21:23:58.279Z,9.13
2023-05-21T21:29:00.016Z,7.93
2023-05-21T21:34:01.838Z,7.37
2023-05-21T21:39:03.587Z,7.97
2023-05-21T21:44:06.169Z,8.63
2023-05-21T21:49:07.902Z,8.70
2023-05-21T21:54:09.569Z,8.40
2023-05-21T21:59:11.243Z,8.57
2023-05-21T22:04:13.110Z,8.40
2023-05-21T22:09:14.879Z,8.87
2023-05-21T22:14:18.234Z,9.53
2023-05-21T22:19:22.066Z,9.00
2023-05-21T22:24:32.108Z,8.33
2023-05-21T22:29:34.701Z,7.87
2023-05-21T22:34:36.314Z,10.13
2023-05-21T22:39:37.974Z,8.00
2023-05-21T22:44:39.641Z,8.87
2023-05-21T22:49:42.416Z,7.43
2023-05-21T22:54:44.015Z,8.60
2023-05-21T22:59:45.992Z,7.77
2023-05-21T23:04:49.263Z,10.07
2023-05-21T23:09:51.812Z,7.73
2023-05-21T23:14:53.487Z,7.63
2023-05-21T23:19:56.145Z,8.27
2023-05-21T23:24:57.978Z,10.07
2023-05-21T23:30:00.365Z,7.17
2023-05-21T23:35:02.012Z,7.87
2023-05-21T23:40:03.900Z,6.43
2023-05-21T23:45:06.245Z,6.40
2023-05-21T23:50:08.559Z,8.77
2023-05-21T23:55:15.449Z,5.93
